createdAt,value
2023-03-31T00:02:13.583Z,1.15
2023-03-31T00:04:46.203Z,0.88
2023-03-31T00:07:14.914Z,1.00
2023-03-31T00:09:45.833Z,1.80
2023-03-31T00:12:17.493Z,0.75
2023-03-31T00:14:44.473Z,1.08
2023-03-31T00:17:11.595Z,1.45
2023-03-31T00:19:40.033Z,2.08
2023-03-31T00:22:06.651Z,0.85
2023-03-31T00:24:34.067Z,1.25
2023-03-31T00:27:02.160Z,0.80
2023-03-31T00:29:29.570Z,1.98
2023-03-31T00:31:56.425Z,0.75
2023-03-31T00:34:23.161Z,2.25
2023-03-31T00:36:49.771Z,1.92
2023-03-31T00:39:19.175Z,0.70
2023-03-31T00:41:45.808Z,0.63
2023-03-31T00:44:22.844Z,0.98
2023-03-31T00:47:10.368Z,2.33
2023-03-31T00:49:45.253Z,1.35
2023-03-31T00:52:19.496Z,1.30
2023-03-31T00:54:49.143Z,0.70
2023-03-31T00:57:16.355Z,2.03
2023-03-31T00:59:57.351Z,1.48
2023-03-31T01:02:27.429Z,1.38
2023-03-31T01:04:59.544Z,1.48
2023-03-31T01:10:13.253Z,0.85
2023-03-31T01:12:47.161Z,0.82
2023-03-31T01:15:14.812Z,1.05
2023-03-31T01:17:44.855Z,1.33
2023-03-31T01:20:14.823Z,0.77
2023-03-31T01:23:16.127Z,1.85
2023-03-31T01:26:07.835Z,0.90
2023-03-31T01:28:55.031Z,0.95
2023-03-31T01:31:33.698Z,0.70
2023-03-31T01:34:18.872Z,0.95
2023-03-31T01:37:15.319Z,1.20
2023-03-31T01:40:00.428Z,0.82
2023-03-31T01:42:48.700Z,0.98
2023-03-31T01:45:21.018Z,1.83
2023-03-31T01:47:59.694Z,1.42
2023-03-31T01:51:13.221Z,1.17
2023-03-31T01:53:51.126Z,0.55
2023-03-31T01:56:28.047Z,0.85
2023-03-31T01:58:58.283Z,0.95
2023-03-31T02:01:33.966Z,0.77
2023-03-31T02:04:09.974Z,0.80
2023-03-31T02:06:40.905Z,0.82
2023-03-31T02:09:13.486Z,0.70
2023-03-31T02:11:42.020Z,1.80
2023-03-31T02:14:12.392Z,1.58
2023-03-31T02:16:47.565Z,0.50
2023-03-31T02:19:18.695Z,0.60
2023-03-31T02:21:49.620Z,1.02
2023-03-31T02:24:19.253Z,1.83
2023-03-31T02:27:02.417Z,1.05
2023-03-31T02:29:29.514Z,0.50
2023-03-31T02:32:04.871Z,0.80
2023-03-31T02:34:31.699Z,0.70
2023-03-31T02:36:58.393Z,1.40
2023-03-31T02:39:36.056Z,1.73
2023-03-31T02:42:07.133Z,0.80
2023-03-31T02:44:35.234Z,1.98
2023-03-31T02:47:07.412Z,1.08
2023-03-31T02:49:36.013Z,0.52
2023-03-31T02:52:18.481Z,0.90
2023-03-31T02:55:09.511Z,1.20
2023-03-31T02:57:57.948Z,1.10
2023-03-31T03:00:34.490Z,0.93
2023-03-31T03:03:31.350Z,0.60
2023-03-31T03:06:39.277Z,0.73
2023-03-31T03:09:25.350Z,0.63
2023-03-31T03:12:13.989Z,1.35
2023-03-31T03:15:00.299Z,1.52
2023-03-31T03:17:39.442Z,0.50
2023-03-31T03:20:08.509Z,0.63
2023-03-31T03:22:37.173Z,1.23
2023-03-31T03:25:05.791Z,0.98
2023-03-31T03:27:32.718Z,1.00
2023-03-31T03:29:59.311Z,1.40
2023-03-31T03:32:25.956Z,0.28
2023-03-31T03:34:52.637Z,0.77
2023-03-31T03:37:19.734Z,0.60
2023-03-31T03:39:46.380Z,0.40
2023-03-31T03:42:12.979Z,1.17
2023-03-31T03:44:39.548Z,0.85
2023-03-31T03:47:06.534Z,1.77
2023-03-31T03:49:33.165Z,0.77
2023-03-31T03:51:59.699Z,0.75
2023-03-31T03:54:26.473Z,0.50
2023-03-31T03:56:53.155Z,0.60
2023-03-31T03:59:19.897Z,0.63
2023-03-31T04:01:46.498Z,0.63
2023-03-31T04:04:13.370Z,0.35
2023-03-31T04:06:40.045Z,0.77
2023-03-31T04:09:06.712Z,0.50
2023-03-31T04:11:33.290Z,0.98
2023-03-31T04:13:59.886Z,0.80
2023-03-31T04:16:26.460Z,0.50
2023-03-31T04:18:56.681Z,0.63
2023-03-31T04:21:23.992Z,0.75
2023-03-31T04:23:58.584Z,1.85
2023-03-31T04:26:31.089Z,0.50
2023-03-31T04:29:01.689Z,0.65
2023-03-31T04:31:30.645Z,0.63
2023-03-31T04:34:02.264Z,0.50
2023-03-31T04:36:31.321Z,0.60
2023-03-31T04:38:58.052Z,0.77
2023-03-31T04:41:27.405Z,0.63
2023-03-31T04:43:54.429Z,0.77
2023-03-31T04:46:21.233Z,1.40
2023-03-31T04:48:48.206Z,0.77
2023-03-31T04:51:17.480Z,0.75
2023-03-31T04:53:44.067Z,0.60
2023-03-31T04:56:11.121Z,0.47
2023-03-31T04:58:37.816Z,0.50
2023-03-31T05:01:08.134Z,0.90
2023-03-31T05:03:34.970Z,1.45
2023-03-31T05:06:01.901Z,0.93
2023-03-31T05:08:28.524Z,0.75
2023-03-31T05:10:55.183Z,0.40
2023-03-31T05:13:22.232Z,1.80
2023-03-31T05:15:50.722Z,3.05
2023-03-31T05:18:18.180Z,3.88
2023-03-31T05:20:44.857Z,7.63
2023-03-31T05:23:11.509Z,7.32
2023-03-31T05:25:38.114Z,6.40
2023-03-31T05:28:05.927Z,8.75
2023-03-31T05:30:32.562Z,5.50
2023-03-31T05:32:59.203Z,7.57
2023-03-31T05:35:27.311Z,7.63
2023-03-31T05:37:53.933Z,6.43
2023-03-31T05:40:20.571Z,8.20
2023-03-31T05:42:47.621Z,4.65
2023-03-31T05:45:14.258Z,6.40
2023-03-31T05:47:40.968Z,8.57
2023-03-31T05:50:09.077Z,4.55
2023-03-31T05:52:36.266Z,4.70
2023-03-31T05:55:05.063Z,3.80
2023-03-31T05:57:32.080Z,4.18
2023-03-31T05:59:58.866Z,5.70
2023-03-31T06:02:25.870Z,4.03
2023-03-31T06:04:52.717Z,5.13
2023-03-31T06:07:19.279Z,5.60
2023-03-31T06:09:46.625Z,4.75
2023-03-31T06:12:13.395Z,4.05
2023-03-31T06:14:40.119Z,2.92
2023-03-31T06:17:07.343Z,5.95
2023-03-31T06:19:34.322Z,3.63
2023-03-31T06:22:01.543Z,5.38
2023-03-31T06:24:28.342Z,7.38
2023-03-31T06:26:55.038Z,5.78
2023-03-31T06:29:21.786Z,6.55
2023-03-31T06:31:48.497Z,5.63
2023-03-31T06:34:15.133Z,3.47
2023-03-31T06:36:41.921Z,3.83
2023-03-31T06:39:08.720Z,4.75
2023-03-31T06:41:35.371Z,4.32
2023-03-31T06:44:01.976Z,4.70
2023-03-31T06:46:28.738Z,5.68
2023-03-31T06:48:55.416Z,3.67
2023-03-31T06:51:22.278Z,5.45
2023-03-31T06:53:48.830Z,4.70
2023-03-31T06:56:16.113Z,11.52
2023-03-31T06:58:42.789Z,10.20
2023-03-31T07:01:11.355Z,9.18
2023-03-31T07:03:38.334Z,4.65
2023-03-31T07:06:05.461Z,4.32
2023-03-31T07:08:32.195Z,2.05
2023-03-31T07:11:00.622Z,5.85
2023-03-31T07:13:28.120Z,4.65
2023-03-31T07:15:55.665Z,4.68
2023-03-31T07:18:25.837Z,3.05
2023-03-31T07:20:52.663Z,3.30
2023-03-31T07:23:20.698Z,5.35
2023-03-31T07:25:48.077Z,4.53
2023-03-31T07:28:14.689Z,5.60
2023-03-31T07:30:41.418Z,5.53
2023-03-31T07:33:09.242Z,3.50
2023-03-31T07:35:40.061Z,4.65
2023-03-31T07:38:09.423Z,3.55
2023-03-31T07:40:36.263Z,5.28
2023-03-31T07:43:03.422Z,4.90
2023-03-31T07:45:30.362Z,4.78
2023-03-31T07:47:56.953Z,3.70
2023-03-31T07:50:24.177Z,3.92
2023-03-31T07:52:51.970Z,2.38
2023-03-31T07:55:23.825Z,4.72
2023-03-31T07:57:51.309Z,4.88
2023-03-31T08:00:18.597Z,3.33
2023-03-31T08:02:45.580Z,3.28
2023-03-31T08:05:14.336Z,2.83
2023-03-31T08:07:42.986Z,4.15
2023-03-31T08:10:12.891Z,3.35
2023-03-31T08:12:39.471Z,2.92
2023-03-31T08:15:06.824Z,5.50
2023-03-31T08:17:33.534Z,3.78
2023-03-31T08:20:03.928Z,5.28
2023-03-31T08:22:33.728Z,6.28
2023-03-31T08:25:00.403Z,5.32
2023-03-31T08:27:27.076Z,3.47
2023-03-31T08:29:53.713Z,4.65
2023-03-31T08:32:24.219Z,3.63
2023-03-31T08:34:51.537Z,4.10
2023-03-31T08:37:18.220Z,4.60
2023-03-31T08:39:44.844Z,4.07
2023-03-31T08:42:16.417Z,2.92
2023-03-31T08:44:51.073Z,3.78
2023-03-31T08:47:22.344Z,3.05
2023-03-31T08:49:58.402Z,3.38
2023-03-31T08:52:32.928Z,3.47
2023-03-31T08:55:04.125Z,2.53
2023-03-31T08:57:56.604Z,3.43
2023-03-31T09:00:23.233Z,4.57
2023-03-31T09:03:22.636Z,2.88
2023-03-31T09:06:08.119Z,5.05
2023-03-31T09:08:41.264Z,4.88
2023-03-31T09:11:34.196Z,4.30
2023-03-31T09:14:06.046Z,2.67
2023-03-31T09:16:53.710Z,3.53
2023-03-31T09:19:41.340Z,4.03
2023-03-31T09:22:16.211Z,2.03
2023-03-31T09:24:52.882Z,3.42
2023-03-31T09:27:20.759Z,3.35
2023-03-31T09:29:56.499Z,4.82
2023-03-31T09:32:25.725Z,3.72
2023-03-31T09:34:57.162Z,4.18
2023-03-31T09:37:27.161Z,4.95
2023-03-31T09:39:53.834Z,2.28
2023-03-31T09:42:20.676Z,2.95
2023-03-31T09:44:50.076Z,3.28
2023-03-31T09:47:20.308Z,3.15
2023-03-31T09:49:54.028Z,2.70
2023-03-31T09:52:30.142Z,3.08
2023-03-31T09:55:00.523Z,2.58
2023-03-31T09:57:34.071Z,2.70
2023-03-31T10:00:22.313Z,2.03
2023-03-31T10:02:50.041Z,2.40
2023-03-31T10:05:25.271Z,4.05
2023-03-31T10:07:53.038Z,3.67
2023-03-31T10:10:30.978Z,4.35
2023-03-31T10:12:57.612Z,4.82
2023-03-31T10:15:27.484Z,4.00
2023-03-31T10:17:55.666Z,9.40
2023-03-31T10:20:39.104Z,13.63
2023-03-31T10:23:29.325Z,14.70
2023-03-31T10:25:56.588Z,8.98
2023-03-31T10:28:23.530Z,12.50
2023-03-31T10:30:56.410Z,9.68
2023-03-31T10:33:28.356Z,11.40
2023-03-31T10:38:42.523Z,8.98
2023-03-31T10:41:10.314Z,13.57
2023-03-31T10:43:48.679Z,10.00
2023-03-31T10:46:15.444Z,8.50
2023-03-31T10:48:44.306Z,13.60
2023-03-31T10:51:14.919Z,8.30
2023-03-31T10:53:47.106Z,9.43
2023-03-31T11:00:01.791Z,11.40
2023-03-31T11:02:57.776Z,13.20
2023-03-31T11:05:34.377Z,8.90
2023-03-31T11:08:36.002Z,9.23
2023-03-31T11:11:32.973Z,11.27
2023-03-31T11:14:17.646Z,10.70
2023-03-31T11:16:50.133Z,7.85
2023-03-31T11:19:34.837Z,12.68
2023-03-31T11:22:15.976Z,10.38
2023-03-31T11:24:48.617Z,9.55
2023-03-31T11:27:30.312Z,13.02
2023-03-31T11:30:24.290Z,9.40
2023-03-31T11:33:03.460Z,8.95
2023-03-31T11:35:54.376Z,6.07
2023-03-31T11:38:56.119Z,10.18
2023-03-31T11:41:39.169Z,10.13
2023-03-31T11:44:10.864Z,6.57
2023-03-31T11:46:54.756Z,10.68
2023-03-31T11:49:26.265Z,7.97
2023-03-31T11:51:57.295Z,5.25
2023-03-31T11:54:35.860Z,7.07
2023-03-31T11:57:09.628Z,8.68
2023-03-31T11:59:38.097Z,6.20
2023-03-31T12:02:15.313Z,10.07
2023-03-31T12:04:49.403Z,13.65
2023-03-31T12:07:33.955Z,9.90
2023-03-31T12:10:11.755Z,7.40
2023-03-31T12:13:09.914Z,6.25
2023-03-31T12:15:41.486Z,9.57
2023-03-31T12:18:24.871Z,8.75
2023-03-31T12:20:56.268Z,7.05
2023-03-31T12:23:27.064Z,9.20
2023-03-31T12:26:18.136Z,7.55
2023-03-31T12:28:46.630Z,9.15
2023-03-31T12:31:21.960Z,9.55
2023-03-31T12:34:14.102Z,7.85
2023-03-31T12:36:46.788Z,7.22
2023-03-31T12:39:35.038Z,7.13
2023-03-31T12:42:20.428Z,6.60
2023-03-31T12:45:15.125Z,3.22
2023-03-31T12:48:05.916Z,5.25
2023-03-31T12:51:02.417Z,10.25
2023-03-31T12:53:34.486Z,10.00
2023-03-31T12:58:32.450Z,12.73
2023-03-31T13:01:25.421Z,8.85
2023-03-31T13:04:11.059Z,8.02
2023-03-31T13:06:37.584Z,6.00
2023-03-31T13:09:15.938Z,5.82
2023-03-31T13:11:47.862Z,6.60
2023-03-31T13:14:21.502Z,3.42
2023-03-31T13:16:55.125Z,7.15
2023-03-31T13:19:32.977Z,7.55
2023-03-31T13:22:01.790Z,6.65
2023-03-31T13:24:31.201Z,4.50
2023-03-31T13:27:32.528Z,5.20
2023-03-31T13:29:59.124Z,3.67
2023-03-31T13:32:26.915Z,7.95
2023-03-31T13:35:17.389Z,6.63
2023-03-31T13:38:12.810Z,6.95
2023-03-31T13:40:48.319Z,4.35
2023-03-31T13:43:14.907Z,2.85
2023-03-31T13:46:06.339Z,3.97
2023-03-31T13:48:38.981Z,3.40
2023-03-31T13:51:17.462Z,3.78
2023-03-31T13:54:06.239Z,3.90
2023-03-31T13:56:41.557Z,4.57
2023-03-31T13:59:21.391Z,5.85
2023-03-31T14:02:26.452Z,3.53
2023-03-31T14:05:11.376Z,4.30
2023-03-31T14:07:49.710Z,5.03
2023-03-31T14:10:45.749Z,3.80
2023-03-31T14:13:18.891Z,3.05
2023-03-31T14:15:50.410Z,2.97
2023-03-31T14:18:33.762Z,3.22
2023-03-31T14:21:43.906Z,4.88
2023-03-31T14:24:28.496Z,3.80
2023-03-31T14:27:02.513Z,2.75
2023-03-31T14:29:39.536Z,3.65
2023-03-31T14:32:15.327Z,2.67
2023-03-31T14:34:50.872Z,4.00
2023-03-31T14:37:21.000Z,2.83
2023-03-31T14:39:54.888Z,2.67
2023-03-31T14:42:42.279Z,5.00
2023-03-31T14:45:25.032Z,6.28
2023-03-31T14:48:02.611Z,4.50
2023-03-31T14:50:34.008Z,6.25
2023-03-31T14:53:02.246Z,4.30
2023-03-31T14:55:44.170Z,3.80
2023-03-31T14:58:27.613Z,6.25
2023-03-31T15:00:54.620Z,3.20
2023-03-31T15:03:21.395Z,3.50
2023-03-31T15:05:49.823Z,2.95
2023-03-31T15:08:22.808Z,2.47
2023-03-31T15:10:58.956Z,3.40
2023-03-31T15:13:39.771Z,3.35
2023-03-31T15:16:34.820Z,2.72
2023-03-31T15:19:11.725Z,6.57
2023-03-31T15:21:39.030Z,4.63
2023-03-31T15:24:06.275Z,4.57
2023-03-31T15:26:41.569Z,3.05
2023-03-31T15:29:36.927Z,1.75
2023-03-31T15:32:34.484Z,2.78
2023-03-31T15:37:52.783Z,3.00
2023-03-31T15:40:28.634Z,5.00
2023-03-31T15:43:24.323Z,3.03
2023-03-31T15:45:56.968Z,3.95
2023-03-31T15:48:36.322Z,3.47
2023-03-31T15:51:11.770Z,2.38
2023-03-31T15:53:45.599Z,3.17
2023-03-31T15:56:28.301Z,2.20
2023-03-31T15:59:06.331Z,3.63
2023-03-31T16:01:42.099Z,2.58
2023-03-31T16:04:14.594Z,3.03
2023-03-31T16:06:44.231Z,2.38
2023-03-31T16:09:26.508Z,1.73
2023-03-31T16:14:34.767Z,2.67
2023-03-31T16:17:12.331Z,1.67
2023-03-31T16:19:48.289Z,2.58
2023-03-31T16:22:19.481Z,3.45
2023-03-31T16:24:46.376Z,3.60
2023-03-31T16:27:13.639Z,7.30
2023-03-31T16:29:40.493Z,3.60
2023-03-31T16:32:16.986Z,2.88
2023-03-31T16:34:58.082Z,3.67
2023-03-31T16:37:27.642Z,4.45
2023-03-31T16:39:54.813Z,2.95
2023-03-31T16:42:21.562Z,3.58
2023-03-31T16:45:00.004Z,4.53
2023-03-31T16:47:35.774Z,3.47
2023-03-31T16:50:07.233Z,5.82
2023-03-31T16:52:34.661Z,4.27
2023-03-31T16:55:01.442Z,4.75
2023-03-31T16:57:28.157Z,4.35
2023-03-31T16:59:57.349Z,2.92
2023-03-31T17:02:25.021Z,2.63
2023-03-31T17:04:54.195Z,1.58
2023-03-31T17:07:23.217Z,3.20
2023-03-31T17:09:49.789Z,2.63
2023-03-31T17:12:16.361Z,3.55
2023-03-31T17:14:42.989Z,2.90
2023-03-31T17:17:09.663Z,3.00
2023-03-31T17:19:36.252Z,3.28
2023-03-31T17:22:03.778Z,3.95
2023-03-31T17:24:30.367Z,3.50
2023-03-31T17:26:57.580Z,2.55
2023-03-31T17:29:24.664Z,2.17
2023-03-31T17:31:51.273Z,1.90
2023-03-31T17:34:18.202Z,2.90
2023-03-31T17:36:45.053Z,2.38
2023-03-31T17:39:12.156Z,3.70
2023-03-31T17:41:38.806Z,6.72
2023-03-31T17:44:07.762Z,5.82
2023-03-31T17:46:35.678Z,5.53
2023-03-31T17:49:02.311Z,2.88
2023-03-31T17:51:28.985Z,2.90
2023-03-31T17:53:56.265Z,2.70
2023-03-31T17:56:23.682Z,2.42
2023-03-31T17:58:51.037Z,2.67
2023-03-31T18:01:19.054Z,2.83
2023-03-31T18:03:46.392Z,1.95
2023-03-31T18:06:14.547Z,1.95
2023-03-31T18:08:42.596Z,2.20
2023-03-31T18:11:09.778Z,4.20
2023-03-31T18:13:37.097Z,6.60
2023-03-31T18:16:04.991Z,1.30
2023-03-31T18:18:31.731Z,4.00
2023-03-31T18:21:03.523Z,2.03
2023-03-31T18:23:30.268Z,3.40
2023-03-31T18:25:56.906Z,3.30
2023-03-31T18:28:23.589Z,3.95
2023-03-31T18:30:50.206Z,1.92
2023-03-31T18:33:17.583Z,2.05
2023-03-31T18:35:44.538Z,2.13
2023-03-31T18:38:11.216Z,2.28
2023-03-31T18:40:38.341Z,1.50
2023-03-31T18:43:05.774Z,2.15
2023-03-31T18:45:32.873Z,3.65
2023-03-31T18:47:59.823Z,3.05
2023-03-31T18:50:26.488Z,1.27
2023-03-31T18:52:54.303Z,1.40
2023-03-31T18:55:21.979Z,2.55
2023-03-31T18:57:48.658Z,2.00
2023-03-31T19:00:16.247Z,1.85
2023-03-31T19:02:43.138Z,4.38
2023-03-31T19:05:10.118Z,3.03
2023-03-31T19:07:36.768Z,5.35
2023-03-31T19:10:03.519Z,2.22
2023-03-31T19:12:30.278Z,3.50
2023-03-31T19:14:56.970Z,4.10
2023-03-31T19:17:23.649Z,2.55
2023-03-31T19:19:50.260Z,5.50
2023-03-31T19:22:17.144Z,7.88
2023-03-31T19:24:45.405Z,2.75
2023-03-31T19:27:12.615Z,3.90
2023-03-31T19:29:39.340Z,1.77
2023-03-31T19:32:06.273Z,3.08
2023-03-31T19:34:33.708Z,3.75
2023-03-31T19:37:01.887Z,4.15
2023-03-31T19:39:28.544Z,2.97
2023-03-31T19:41:55.310Z,3.80
2023-03-31T19:44:21.945Z,2.28
2023-03-31T19:46:48.638Z,1.58
2023-03-31T19:49:15.727Z,2.97
2023-03-31T19:51:42.369Z,1.80
2023-03-31T19:54:10.818Z,1.63
2023-03-31T19:56:38.008Z,3.03
2023-03-31T19:59:05.397Z,2.15
2023-03-31T20:01:32.533Z,1.70
2023-03-31T20:03:59.352Z,1.70
2023-03-31T20:06:29.004Z,1.55
2023-03-31T20:09:00.752Z,3.35
2023-03-31T20:11:29.686Z,3.45
2023-03-31T20:13:57.193Z,1.42
2023-03-31T20:16:28.031Z,1.83
2023-03-31T20:19:04.136Z,1.50
2023-03-31T20:21:33.491Z,3.08
2023-03-31T20:24:00.170Z,5.95
2023-03-31T20:26:30.204Z,2.92
2023-03-31T20:28:58.807Z,2.67
2023-03-31T20:31:31.321Z,4.38
2023-03-31T20:33:58.606Z,2.92
2023-03-31T20:36:29.613Z,6.82
2023-03-31T20:38:57.076Z,3.67
2023-03-31T20:41:26.344Z,2.92
2023-03-31T20:43:54.388Z,2.75
2023-03-31T20:46:22.502Z,3.22
2023-03-31T20:48:51.562Z,0.98
2023-03-31T20:51:21.425Z,3.25
2023-03-31T20:53:50.275Z,3.78
2023-03-31T20:56:28.923Z,1.58
2023-03-31T20:58:58.886Z,2.85
2023-03-31T21:01:27.962Z,3.28
2023-03-31T21:04:01.234Z,2.13
2023-03-31T21:06:31.040Z,3.15
2023-03-31T21:08:57.902Z,3.08
2023-03-31T21:11:25.311Z,2.80
2023-03-31T21:13:53.056Z,5.25
2023-03-31T21:16:21.346Z,5.13
2023-03-31T21:18:48.629Z,7.05
2023-03-31T21:21:18.747Z,3.45
2023-03-31T21:23:46.717Z,4.30
2023-03-31T21:26:15.501Z,4.13
2023-03-31T21:28:43.492Z,7.75
2023-03-31T21:31:16.987Z,5.50
2023-03-31T21:33:45.070Z,3.78
2023-03-31T21:36:25.128Z,8.18
2023-03-31T21:38:55.835Z,6.40
2023-03-31T21:41:25.884Z,8.90
2023-03-31T21:43:53.436Z,4.95
2023-03-31T21:46:24.176Z,7.07
2023-03-31T21:48:50.914Z,7.60
2023-03-31T21:51:19.134Z,5.18
2023-03-31T21:53:46.015Z,6.45
2023-03-31T21:56:12.806Z,9.65
2023-03-31T21:58:39.854Z,7.88
2023-03-31T22:01:07.618Z,7.35
2023-03-31T22:03:35.490Z,9.50
2023-03-31T22:06:07.039Z,11.40
2023-03-31T22:08:36.524Z,7.78
2023-03-31T22:11:05.761Z,8.23
2023-03-31T22:13:32.556Z,7.15
2023-03-31T22:16:01.564Z,6.50
2023-03-31T22:18:29.388Z,5.38
2023-03-31T22:20:56.917Z,5.90
2023-03-31T22:23:24.223Z,7.28
2023-03-31T22:25:50.795Z,5.35
2023-03-31T22:28:17.743Z,7.53
2023-03-31T22:30:44.545Z,7.18
2023-03-31T22:33:11.275Z,5.43
2023-03-31T22:35:38.159Z,8.70
2023-03-31T22:38:06.147Z,5.80
2023-03-31T22:40:34.515Z,7.05
2023-03-31T22:43:01.543Z,5.07
2023-03-31T22:45:28.384Z,5.65
2023-03-31T22:47:55.356Z,6.65
2023-03-31T22:50:22.382Z,4.80
2023-03-31T22:52:49.072Z,7.20
2023-03-31T22:55:15.855Z,6.93
2023-03-31T22:57:42.699Z,4.32
2023-03-31T23:00:10.450Z,8.32
2023-03-31T23:02:37.019Z,6.20
2023-03-31T23:05:03.857Z,6.53
2023-03-31T23:07:30.493Z,7.38
2023-03-31T23:09:57.145Z,5.25
2023-03-31T23:12:28.077Z,7.57
2023-03-31T23:14:54.744Z,4.15
2023-03-31T23:17:21.358Z,10.25
2023-03-31T23:19:48.371Z,6.00
2023-03-31T23:22:15.288Z,4.55
2023-03-31T23:24:42.633Z,6.72
2023-03-31T23:27:09.404Z,6.05
2023-03-31T23:29:36.259Z,5.53
2023-03-31T23:32:03.650Z,4.80
2023-03-31T23:34:30.401Z,5.05
2023-03-31T23:36:57.266Z,7.07
2023-03-31T23:39:24.075Z,4.30
2023-03-31T23:41:51.053Z,5.85
2023-03-31T23:44:18.046Z,4.65
2023-03-31T23:46:44.809Z,5.13
2023-03-31T23:49:11.960Z,6.22
2023-03-31T23:51:38.578Z,4.78
2023-03-31T23:54:05.252Z,5.13
2023-03-31T23:56:31.896Z,5.28
2023-03-31T23:58:58.549Z,7.00
